Historyczne dane pomiarowe

Dodano dane terminowe – wersja testowa.

Dane z okresu 1951-2019

Wersja bazy: 1.34 [2019-03-16, lista zmian], aktualizacja planowana na 2019-04-15

Dane meteo z obszaru Polski uzyskane na podstawie danych udostępnionych przez Instytut Meteorologii i Gospodarki Wodnej – Państwowy Instytut Badawczy.

 

Wybierz Datę:    

       

TemperaturaWilgotnośćWiatrCiśnienieOpadyŚniegCzas trwania zjawisk
 Stacja t tx tn tng RH VA  wxwx mslp ppp RRR   cm mm wxwxwxwxwxwxwx
1956-11-09 0.4 3.3 -2.8- 71.8- 2.7 2.0---- 0.0------------
1956-11-08 0.8 5.3 -3.0- 78.3- 1.7 2.0---- 0.0------------
1956-11-07 3.1 5.6 1.0- 71.0- 4.0 4.3---- 0.0------------
1956-11-06 5.3 6.8 3.6- 66.8- 4.0 10.3---- 0.2------------
1956-11-05 7.2 8.7 4.0- 71.8- 5.3 13.7---- 2.0------------
1956-11-04 3.9 5.5 0.4- 84.8- 8.0 2.3---- 0.0------------
1956-11-03 3.5 5.3 1.5- 75.0- 3.7 2.3---- 0.0------------
1956-11-02 4.1 7.2 2.2- 75.8- 4.0 2.7---- 3.0------------
1956-11-01 5.9 7.0 2.6- 91.8- 8.0 7.0---- 0.0------------
1956-10-31 1.4 3.9 -5.9- 81.0- 3.0 2.3---- 0.0------------
1956-10-30 0.3 1.5 -0.4- 91.5- 5.3 6.7---- 0.0------------
1956-10-29 2.8 7.0 0.5- 87.5- 8.0 8.3---- 0.1------------
1956-10-28 7.5 8.7 6.0- 93.0- 7.0 2.7---- 0.0------------
1956-10-27 8.0 9.7 4.0- 89.3- 7.3 7.0---- 5.3------------
1956-10-26 6.3 10.2 4.2- 88.0- 3.3 1.7---- 0.0------------
1956-10-25 10.5 13.6 8.4- 84.3- 4.7 6.0---- 0.0------------
1956-10-24 12.5 13.6 10.7- 92.5- 8.0 5.0---- 0.5------------
1956-10-23 11.3 12.6 10.7- 83.8- 7.3 6.7---- 0.0------------
1956-10-22 12.3 12.8 11.5- 84.5- 8.0 8.3---- 0.0------------
1956-10-21 12.2 12.8 10.1- 93.8- 7.7 5.3---- 0.0------------
1956-10-20 11.4 11.9 8.0- 91.5- 8.0 1.0---- 0.0------------
1956-10-19 11.3 12.4 9.8- 88.5- 5.3 6.0---- 0.0------------
1956-10-18 12.4 13.0 11.1- 97.0- 8.0 2.3---- 12.5------------
1956-10-17 11.2 16.4 3.6- 70.0- 0.7 5.3---- 0.0------------
1956-10-16 6.4 12.2 1.3- 88.0- 0.0 1.0---- 0.0------------
1956-10-15 7.7 11.3 4.3- 83.8- 0.0 2.3---- 0.0------------
1956-10-14 10.4 12.8 9.2- 76.0- 1.7 10.7---- 0.0------------
1956-10-13 11.3 11.9 9.7- 88.3- 7.3 15.0---- 4.2------------
1956-10-12 11.0 12.6 10.6- 82.8- 6.7 11.0---- 0.0------------
1956-10-11 12.1 12.3 9.2- 91.8- 5.0 9.0---- 0.0------------
1956-10-10 8.1 10.7 0.6- 86.3- 5.3 4.7---- 0.0------------
1956-10-09 10.0 11.3 5.5- 82.3- 5.0 6.3---- 0.2------------
1956-10-08 8.7 9.7 4.5- 79.3- 5.7 5.3---- 13.5------------
1956-10-07 8.4 10.7 7.4- 84.3- 7.3 11.3---- 6.2------------
1956-10-06 8.7 10.7 3.2- 77.8- 3.0 3.0---- 0.0------------
1956-10-05 7.2 11.2 5.0- 91.5- 6.0 3.3---- 8.1------------
1956-10-04 10.1 13.8 6.6- 84.3- 6.0 5.0---- 12.0------------
1956-10-03 11.6 15.4 9.0- 92.3- 5.0 6.7---- 0.0------------
1956-10-02 15.0 17.2 9.6- 93.5- 8.0 4.3---- 15.2------------
1956-10-01 13.5 15.0 8.2- 87.3- 8.0 3.7---- 11.6------------
1956-09-30 11.9 15.0 9.0- 90.8- 2.3 6.0---- 0.1------------
1956-09-29 14.4 16.9 13.6- 83.3- 3.7 13.7---- 0.1------------
1956-09-28 15.7 18.2 13.7- 83.0- 6.7 8.7---- 3.6------------
1956-09-27 14.5 15.5 10.5- 92.0- 5.3 2.0---- 3.2------------
1956-09-26 14.5 22.5 9.5- 80.8- 0.0 1.3---- 0.0------------
1956-09-25 12.1 20.0 4.0- 74.0- 0.0 1.3---- 0.0------------
1956-09-24 9.3 17.5 4.5- 82.8- 0.0 2.0---- 0.0------------
1956-09-23 11.4 17.9 7.2- 88.8- 2.3 2.7---- 0.0------------
1956-09-22 12.5 19.2 6.7- 82.3- 0.0 3.0---- 0.0------------
1956-09-21 10.7 17.3 3.0- 91.5- 0.3 1.0---- 0.0------------
1956-09-20 9.9 14.3 6.2- 92.8- 2.3 1.3---- 0.0------------
1956-09-19 8.5 14.8 3.2- 92.5- 1.0 1.7---- 0.0------------
1956-09-18 10.3 14.2 7.7- 88.8- 4.0 3.7---- 0.0------------
1956-09-17 12.5 13.8 11.7- 72.0- 1.3 9.0---- 0.0------------
1956-09-16 13.1 14.0 11.3- 82.5- 4.3 12.7---- 0.0------------
1956-09-15 13.0 14.5 11.7- 95.0- 2.3 9.3---- 0.0------------
1956-09-14 11.4 15.3 5.2- 92.0- 1.3 2.3---- 0.4------------
1956-09-13 11.9 14.3 9.8- 87.5- 6.0 10.0---- 5.2------------
1956-09-12 13.7 16.9 9.5- 90.0- 4.3 14.0---- 21.0------------
1956-09-11 14.9 16.4 11.1- 93.5- 4.3 1.0---- 5.6------------
1061.1 ms

 

Źródłem pochodzenia danych jest Instytut Meteorologii i Gospodarki Wodnej – Państwowy Instytut Badawczy. Dane Instytutu Meteorologii i Gospodarki Wodnej – Państwowego Instytutu Badawczego zostały przetworzone.

Dane źródłowe można odnaleźć na stronie https://dane.imgw.pl